KLAX

Los Angeles

Airport
ICAO code
KLAX
IATA Code
LAX
Summary
ICAO Region
NAM
ICAO Territory
Location

Westchester, Los Angeles, California,

Serving
Los Angeles
Elevation
126 ft
Coordinates
33° 56' 37" N , 118° 24' 31" W
KCC
Airport LOS
Parallel Runway Operation
Metar
Observation
KLAX 261453Z 00000KT 10SM FEW200 11/M02 A3015 RMK AO2 SLP206 T01111022 53007 $
Station
Los Angeles, Los Angeles International Airport
Date/Time
2022-11-26 14:53:00
Wind direction
Wind speed
00 kts
Lowest cloud amount
few clouds
Temperature
11.1°C
Dew point
-2.2°C
Humidity
39%
Weather condition
n/a

Description

Los Angeles International Airport is the primary airport serving Los Angeles, California. It is most often referred to by its IATA airport code LAX. LAX is located in southwestern Los Angeles in the neighborhood of Westchester, 26 km from the downtown core.

Climatology

Mediterranean climate or Dry-Summer Subtropical (Köppen climate classification Csa) - Summers are warm to hot and dry. Winters are mild and somewhat rainy. Spring and autumn bring mild days with cool evenings and are generally dry.

Runways

Designator Length Width Surface Rops
06L/24R 2720 46 CON Yes/Yes
06R/24L 3135 46 CON Yes/Yes
07R/25L 3382 61 CON Yes/Yes
07L/25R 3685 46 CON Yes/Yes

SKYbrary Partners:

Safety knowledge contributed by: